METAR des aéroports

 

LFBA - AGEN (Lot-et-Garonne)
Mise à jour: 21/05/2024 03:00
nuageux
nuageux
 Vent SW
Vent: SW 15 km/h
Température: 13°C
Point de Rosée: 11°C
Humidité: 88%
Barometre: 1011 hPa
Nuage: nuageux
Visibilité: 10 km
2024/05/21 01:00 LFBA 210100Z AUTO 23008KT 200V270 9999 SCT015 BKN027 BKN036 13/11 Q1011
LFKJ - AJACCIO (Corse-du-Sud)
Mise à jour: 21/05/2024 03:00
orage
orage
 Vent variable
Vent: variable 4 km/h
Température: 18°C
Point de Rosée: 16°C
Humidité: 88%
Barometre: 1008 hPa
Nuage: orage
Visibilité: 10 km
2024/05/21 01:00 LFKJ 210100Z AUTO VRB02KT 9999 FEW029/// SCT035/// BKN041/// ///TCU 18/16 Q1008 TEMPO 2000 RA BKN012 BKN020 FEW033CB
 
LFJR - ANGERS (Maine-et-Loire)
Mise à jour: 21/05/2024 03:00
orage
orage
 Vent NNE
Vent: NNE 6 km/h
Température: 14°C
Point de Rosée: 13°C
Humidité: 94%
Barometre: 1007 hPa
Nuage: orage
Visibilité: 7 km
2024/05/21 01:00 LFJR 210100Z AUTO 03003KT 7000 OVC004/// ///CB 14/13 Q1007
LFLP - ANNECY (Haute-Savoie)
Mise à jour: 21/05/2024 03:00
nuageux
nuageux
 Vent E
Vent: E 4 km/h
Température: 12°C
Point de Rosée: 12°C
Humidité: 100%
Barometre: 1010 hPa
Nuage: nuageux
Visibilité: 10 km
2024/05/21 01:00 LFLP 210100Z AUTO 08002KT 9999 BKN062 BKN170 12/12 Q1010
 
LFMV - AVIGNON (Vaucluse)
Mise à jour: 21/05/2024 03:00
en partie nuageux
en partie nuageux
 Vent NE
Vent: NE 2 km/h
Température: 12°C
Point de Rosée: 11°C
Humidité: 94%
Barometre: 1009 hPa
Nuage: en partie nuageux
Visibilité: 10 km
2024/05/21 01:00 LFMV 210100Z AUTO 04001KT 9999 FEW080 SCT140 12/11 Q1009
LFOA - AVORD (Cher)
Mise à jour: 21/05/2024 03:00
couvert
couvert
 Vent variable
Vent: variable 6 km/h
Température: 12°C
Point de Rosée: 11°C
Humidité: 94%
Barometre: 1009 hPa
Nuage: couvert
Visibilité: 10 km
2024/05/21 01:00 LFOA 210100Z AUTO VRB03KT 9999 FEW047 OVC080 12/11 Q1009
 
LFSB - BALE - MULHOUSE (Haut-Rhin)
Mise à jour: 21/05/2024 03:00
faible pluie, orage
faible pluie, orage
 Vent variable
Vent: variable 4 km/h
Température: 13°C
Point de Rosée: 13°C
Humidité: 100%
Barometre: 1009 hPa
Nuage: orage
Visibilité: 10 km
2024/05/21 01:00 LFSB 210100Z AUTO VRB02KT 9999 -RA SCT012/// SCT040/// OVC096/// ///TCU 13/13 Q1009 TEMPO VRB15G25KT 2000 TSRA SCT040CB
LFKB - BASTIA (Haute-Corse)
Mise à jour: 21/05/2024 03:00
pluie, orage
pluie, orage
 Vent variable
Vent: variable 7 km/h
Température: 17°C
Point de Rosée: 15°C
Humidité: 88%
Barometre: 1006 hPa
Nuage: orage
Visibilité: 10 km
2024/05/21 01:00 LFKB 210100Z AUTO VRB04KT 9999 RA FEW024/// SCT036/// BKN088/// ///TCU 17/15 Q1006 TEMPO 2000 RA BKN010 BKN020 FEW030CB
 
LFOB - BEAUVAIS (Oise)
Mise à jour: 21/05/2024 03:00
orage
orage
 Vent N
Vent: N 7 km/h
Température: 13°C
Point de Rosée: 11°C
Humidité: 88%
Barometre: 1008 hPa
Nuage: orage
Visibilité: 8 km
2024/05/21 01:00 LFOB 210100Z AUTO 36004KT 330V040 8000 OVC007/// ///CB 13/11 Q1008 TEMPO 4000 BR OVC002
LFBE - BERGERAC (Dordogne)
Mise à jour: 21/05/2024 03:00
faible pluie, orage
faible pluie, orage
 Vent SW
Vent: SW 17 km/h
Température: 13°C
Point de Rosée: 12°C
Humidité: 94%
Barometre: 1010 hPa
Nuage: orage
Visibilité: 7 km
2024/05/21 01:00 LFBE 210100Z AUTO 22009KT 180V240 7000 -RA BKN016/// OVC035/// ///CB 13/12 Q1010 TEMPO 25015G25KT 2000 SHRA BKN010 BKN015TCU
 
LFMU - BEZIERS (Hérault)
Mise à jour: 21/05/2024 03:00
clair
clair
 Vent NW
Vent: NW 9 km/h
Température: 13°C
Point de Rosée: 11°C
Humidité: 88%
Barometre: 1011 hPa
Visibilité: supérieure à 10 km
2024/05/21 01:00 LFMU 210100Z AUTO 31005KT 270V330 CAVOK 13/11 Q1011
LFBZ - BIARRITZ (Pyrénées-Atlantiques)
Mise à jour: 21/05/2024 03:00
couvert
couvert
 Vent SW
Vent: SW 9 km/h
Température: 14°C
Point de Rosée: 11°C
Humidité: 82%
Barometre: 1013 hPa
Nuage: couvert
Visibilité: 10 km
2024/05/21 01:00 LFBZ 210100Z AUTO 23005KT 180V270 9999 BKN030/// OVC046/// 14/11 Q1013 TEMPO 26015G25KT 3000 SHRA BKN010 BKN020TCU
 
LFBD - BORDEAUX (Gironde)
Mise à jour: 21/05/2024 03:00
orage
orage
 Vent W
Vent: W 20 km/h
Température: 14°C
Point de Rosée: 13°C
Humidité: 94%
Barometre: 1010 hPa
Nuage: orage
Visibilité: 10 km
2024/05/21 01:00 LFBD 210100Z AUTO 26011KT 9999 BKN007/// OVC012/// ///CB 14/13 Q1010 TEMPO 24015G25KT 3000 SHRA
LFSL - BRIVE (Correze)
Mise à jour: 21/05/2024 03:00
couvert
couvert
 Vent S
Vent: S 15 km/h
Température: 12°C
Point de Rosée: 10°C
Humidité: 88%
Barometre: 1010 hPa
Nuage: couvert
Visibilité: 10 km
2024/05/21 01:00 LFSL 210100Z AUTO 18008KT 150V240 9999 BKN007 OVC011 12/10 Q1010
 
LFRK - CAEN (Calvados)
Mise à jour: 21/05/2024 03:00
faible pluie, bruine, orage
faible pluie, bruine, orage
 Vent N
Vent: N 7 km/h
Température: 14°C
Point de Rosée: 13°C
Humidité: 94%
Barometre: 1009 hPa
Nuage: orage
Visibilité: 8 km
2024/05/21 01:00 LFRK 210100Z AUTO 36004KT 330V030 8000 -RADZ SCT006/// OVC037/// ///TCU 14/13 Q1009
LFKC - CALVI (Haute-Corse)
Mise à jour: 21/05/2024 03:00
faible pluie, orage
faible pluie, orage
 Vent S
Vent: S 11 km/h
Température: 15°C
Point de Rosée: 14°C
Humidité: 94%
Barometre: 1008 hPa
Nuage: orage
Visibilité: 10 km
2024/05/21 01:00 LFKC 210100Z AUTO 17006KT 9999 -RA SCT018/// BKN039/// BKN058/// ///CB 15/14 Q1008
 
LFMD - CANNES (Alpes-Maritimes)
Mise à jour: 21/05/2024 03:00
clair
clair
 Vent calm
Vent: Calme
Température: 16°C
Point de Rosée: 15°C
Humidité: 94%
Barometre: 1007 hPa
Visibilité: supérieure à 10 km
2024/05/21 01:00 LFMD 210100Z AUTO 00000KT CAVOK 16/15 Q1007
LFMK - CARCASSONNE (Aude)
Mise à jour: 21/05/2024 03:00
clair
clair
 Vent WSW
Vent: WSW 9 km/h
Température: 11°C
Point de Rosée: 10°C
Humidité: 94%
Barometre: 1012 hPa
Visibilité: supérieure à 10 km
2024/05/21 01:00 LFMK 210100Z AUTO 25005KT 220V280 CAVOK 11/10 Q1012
 
LFBC - CAZAUX (Gironde)
Mise à jour: 21/05/2024 03:00
faible pluie, orage
faible pluie, orage
 Vent W
Vent: W 22 km/h
Température: 14°C
Point de Rosée: 13°C
Humidité: 94%
Barometre: 1011 hPa
Nuage: orage
Visibilité: 10 km
2024/05/21 01:00 LFBC 210100Z AUTO 26012KT 230V290 9999 -RA BKN013/// BKN020/// BKN047/// ///CB 14/13 Q1011
LFLB - CHAMBERY (Savoie)
Mise à jour: 21/05/2024 03:00
couvert
couvert
 Vent calm
Vent: Calme
Température: 12°C
Point de Rosée: 12°C
Humidité: 100%
Barometre: 1010 hPa
Nuage: couvert
Visibilité: 10 km
2024/05/21 01:00 LFLB 210100Z AUTO 00000KT 9999 SCT058 OVC074 12/12 Q1010
 
LFOC - CHATEAUDUN (Eure-et-Loir)
Mise à jour: 11/10/2021 08:00
Pas Actualisé
brume, nuageux
brume, nuageux
 Vent N
Vent: N 9 km/h
Température: 11°C
Point de Rosée: 11°C
Humidité: 100%
Barometre: 1028 hPa
Nuage: nuageux
Visibilité: 3 km
2021/10/11 06:00 LFOC 110600Z AUTO 36005KT 3100 BR BKN005 BKN023 BKN028 11/11 Q1028
LFLX - CHATEAUROUX (Indre)
Mise à jour: 21/05/2024 03:00
couvert
couvert
 Vent SSE
Vent: SSE 7 km/h
Température: 12°C
Point de Rosée: 11°C
Humidité: 94%
Barometre: 1008 hPa
Nuage: couvert
Visibilité: 10 km
2024/05/21 01:00 LFLX 210100Z AUTO 15004KT 9999 FEW049 BKN058 OVC082 12/11 Q1008 BECMG BKN012
 
LFRC - CHERBOURG (Manche)
Mise à jour: 21/05/2024 03:00
clair
clair
 Vent ENE
Vent: ENE 7 km/h
Température: 11°C
Point de Rosée: 10°C
Humidité: 94%
Barometre: 1010 hPa
Visibilité: supérieure à 10 km
2024/05/21 01:00 LFRC 210100Z AUTO 06004KT CAVOK 11/10 Q1010
LFLC - CLERMONT (Puy-De-Dôme)
Mise à jour: 21/05/2024 03:00
clair
clair
 Vent WSW
Vent: WSW 11 km/h
Température: 7°C
Température au Vent: 5°C
Point de Rosée: 6°C
Humidité: 93%
Barometre: 1010 hPa
Visibilité: supérieure à 10 km
2024/05/21 01:00 LFLC 210100Z AUTO 24006KT 210V280 CAVOK 07/06 Q1010 NOSIG
 
LFBG - COGNAC (Charente)
Mise à jour: 21/05/2024 03:00
pluie, brume, orage
pluie, brume, orage
 Vent SSE
Vent: SSE 11 km/h
Température: 13°C
Point de Rosée: 13°C
Humidité: 100%
Barometre: 1007 hPa
Nuage: orage
Visibilité: 4 km
2024/05/21 01:00 LFBG 210100Z AUTO 15006KT 4200 RA BR SCT010/// BKN017/// BKN022/// ///TCU 13/13 Q1007
LFRG - DEAUVILLE (Calvados)
Mise à jour: 21/05/2024 03:00
faible pluie, orage
faible pluie, orage
 Vent NNW
Vent: NNW 6 km/h
Température: 12°C
Point de Rosée: 11°C
Humidité: 94%
Barometre: 1009 hPa
Nuage: orage
Visibilité: 7 km
2024/05/21 01:00 LFRG 210100Z AUTO 34003KT 7000 -RA ///CB 12/11 Q1009
 
LFSD - DIJON (Côte d-Or)
Mise à jour: 21/05/2024 03:00
brouillard, couvert
brouillard, couvert
 Vent calm
Vent: Calme
Température: 12°C
Point de Rosée: 12°C
Humidité: 100%
Barometre: 1009 hPa
Nuage: couvert
Visibilité: 1 km
2024/05/21 01:00 LFSD 210100Z AUTO 00000KT 0800 R35/0900N FG FEW012 SCT025 OVC200 12/12 Q1009
LFRD - DINARD (Ille-et-Vilaine)
Mise à jour: 21/05/2024 03:00
nuageux
nuageux
 Vent NE
Vent: NE 6 km/h
Température: 13°C
Point de Rosée: 12°C
Humidité: 94%
Barometre: 1009 hPa
Nuage: nuageux
Visibilité: 7 km
2024/05/21 01:00 LFRD 210100Z AUTO 04003KT 7000 FEW008 SCT076 BKN098 13/12 Q1009 TEMPO 4000 SHRA BKN012 SCT030CB
 
LFGJ - DOLE (Jura)
Mise à jour: 21/05/2024 03:00
en partie nuageux
en partie nuageux
 Vent variable
Vent: variable 6 km/h
Température: 13°C
Point de Rosée: 13°C
Humidité: 100%
Barometre: 1009 hPa
Nuage: en partie nuageux
Visibilité: 8 km
2024/05/21 01:00 LFGJ 210100Z AUTO VRB03KT 8000 NSC 13/13 Q1009
FMCZ - DZAOUDZI-PAMANDZI (Mayotte)
Mise à jour: 21/05/2024 03:00
nuageux
nuageux
 Vent SSE
Vent: SSE 35 km/h
Température: 28°C
Humidex: 31°C
Point de Rosée: 23°C
Humidité: 74%
Barometre: 1013 hPa
Nuage: nuageux
Visibilité: 10 km
2024/05/21 01:00 FMCZ 210100Z AUTO 16019KT 9999 SCT029 BKN040 BKN220 28/23 Q1013 NOSIG
 
LFOE - EVREUX (Eure)
Mise à jour: 21/05/2024 03:00
orage
orage
 Vent NNE
Vent: NNE 9 km/h
Température: 13°C
Point de Rosée: 13°C
Humidité: 100%
Barometre: 1008 hPa
Nuage: orage
Visibilité: 9 km
2024/05/21 01:00 LFOE 210100Z AUTO 03005KT 350V050 9000 OVC007/// ///CB 13/13 Q1008 TEMPO VRB15G30KT 2000 TSGSRA BKN010 BKN025CB
LFKF - FIGARI (Corse-du-Sud)
Mise à jour: 21/05/2024 03:00
orage
orage
 Vent W
Vent: W 22 km/h
Température: 18°C
Point de Rosée: 15°C
Humidité: 83%
Barometre: 1007 hPa
Nuage: orage
Visibilité: 10 km
2024/05/21 01:00 LFKF 210100Z AUTO 28012KT 9999 SCT040/// BKN110/// BKN140/// ///CB 18/15 Q1007
 
LFLS - GRENOBLE (Isère)
Mise à jour: 21/05/2024 03:00
nuages épars
nuages épars
 Vent NE
Vent: NE 6 km/h
Température: 11°C
Point de Rosée: 10°C
Humidité: 94%
Barometre: 1010 hPa
Nuage: nuages épars
Visibilité: 10 km
2024/05/21 01:00 LFLS 210100Z AUTO 05003KT 9999 FEW001 11/10 Q1010
LFTH - HYERES (Var)
Mise à jour: 21/05/2024 03:00
clair
clair
 Vent calm
Vent: Calme
Température: 15°C
Point de Rosée: 13°C
Humidité: 88%
Barometre: 1008 hPa
Visibilité: supérieure à 10 km
2024/05/21 01:00 LFTH 210100Z AUTO 00000KT CAVOK 15/13 Q1008 NOSIG
 
LFMI - ISTRES Bouches-du-Rhône)
Mise à jour: 21/05/2024 03:00
clair
clair
 Vent W
Vent: W 15 km/h
Température: 15°C
Point de Rosée: 14°C
Humidité: 94%
Barometre: 1009 hPa
Visibilité: supérieure à 10 km
2024/05/21 01:00 LFMI 210100Z AUTO 28008KT CAVOK 15/14 Q1009 NOSIG
LFRI - LA ROCHE SUR YON (Vendée)
Mise à jour: 21/05/2024 03:00
couvert
couvert
 Vent N
Vent: N 7 km/h
Température: 13°C
Point de Rosée: 13°C
Humidité: 100%
Barometre: 1008 hPa
Nuage: couvert
Visibilité: 10 km
2024/05/21 01:00 LFRI 210100Z AUTO 35004KT 320V020 9999 OVC004 13/13 Q1008
 
LFBH - LA ROCHELLE (Charente-Maritime)
Mise à jour: 21/05/2024 03:00
couvert
couvert
 Vent NNW
Vent: NNW 9 km/h
Température: 14°C
Point de Rosée: 14°C
Humidité: 100%
Barometre: 1008 hPa
Nuage: couvert
Visibilité: 10 km
2024/05/21 01:00 LFBH 210100Z AUTO 33005KT 9999 BKN007 OVC020 14/14 Q1008 TEMPO 4500 -SHRA BKN009 SCT030CB
LFRJ - LANDIVISIAU (Finistère)
Mise à jour: 21/05/2024 03:00
brume, en partie nuageux
brume, en partie nuageux
 Vent NNE
Vent: NNE 9 km/h
Température: 11°C
Point de Rosée: 11°C
Humidité: 100%
Barometre: 1010 hPa
Nuage: en partie nuageux
Visibilité: 5 km
2024/05/21 01:00 LFRJ 210100Z AUTO 03005KT 5000 BR NSC 11/11 Q1010
 
LFOV - LAVAL (Mayenne)
Mise à jour: 21/05/2024 03:00
faible pluie, orage
faible pluie, orage
 Vent N
Vent: N 7 km/h
Température: 13°C
Point de Rosée: 12°C
Humidité: 94%
Barometre: 1008 hPa
Nuage: orage
Visibilité: 9 km
2024/05/21 01:00 LFOV 210100Z AUTO 36004KT 9000 -RA BKN011/// OVC018/// ///CB 13/12 Q1008
LFOH - LE HAVRE (Seine-Maritime)
Mise à jour: 21/05/2024 03:00
orage
orage
 Vent NE
Vent: NE 11 km/h
Température: 12°C
Point de Rosée: 11°C
Humidité: 94%
Barometre: 1009 hPa
Nuage: orage
Visibilité: 10 km
2024/05/21 01:00 LFOH 210100Z AUTO 05006KT 020V090 9999 SCT007/// OVC064/// ///TCU 12/11 Q1009
 
TFFF - LE LAMENTIN (Martinique)
Mise à jour: 21/05/2024 03:00
clair
clair
 Vent ESE
Vent: ESE 17 km/h
Température: 28°C
Humidex: 30°C
Point de Rosée: 22°C
Humidité: 70%
Barometre: 1013 hPa
Visibilité: supérieure à 10 km
2024/05/21 01:00 TFFF 210100Z AUTO 11009KT CAVOK 28/22 Q1013 NOSIG
LFAT - LE TOUQUET (Pas-de-Calais)
Mise à jour: 21/05/2024 03:00
couvert
couvert
 Vent N
Vent: N 7 km/h
Température: 13°C
Point de Rosée: 11°C
Humidité: 88%
Barometre: 1009 hPa
Nuage: couvert
Visibilité: 10 km
2024/05/21 01:00 LFAT 210100Z AUTO 01004KT 340V040 9999 OVC011 13/11 Q1009
 
LFQQ - LILLE (Nord)
Mise à jour: 21/05/2024 03:00
brume, couvert
brume, couvert
 Vent NNE
Vent: NNE 11 km/h
Température: 14°C
Point de Rosée: 13°C
Humidité: 94%
Barometre: 1009 hPa
Nuage: couvert
Visibilité: 5 km
2024/05/21 01:00 LFQQ 210100Z AUTO 02006KT 5000 BR OVC007 14/13 Q1009 TEMPO 1500 BR OVC002
LFBL - LIMOGES (Haute-Vienne)
Mise à jour: 21/05/2024 03:00
orage
orage
 Vent S
Vent: S 13 km/h
Température: 11°C
Point de Rosée: 11°C
Humidité: 100%
Barometre: 1008 hPa
Nuage: orage
Visibilité: 10 km
2024/05/21 01:00 LFBL 210100Z AUTO 18007KT 9999 OVC003/// ///TCU 11/11 Q1008 TEMPO 1000 +RA
 
LFRH - LANN BIHOUE (Morbihan)
Mise à jour: 21/05/2024 03:00
en partie nuageux
en partie nuageux
 Vent NNE
Vent: NNE 7 km/h
Température: 11°C
Point de Rosée: 10°C
Humidité: 94%
Barometre: 1009 hPa
Nuage: en partie nuageux
Visibilité: 8 km
2024/05/21 01:00 LFRH 210100Z AUTO 02004KT 8000 NSC 11/10 Q1009 NOSIG
LFSX - LUXEUIL (Haute-Saône)
Mise à jour: 21/05/2024 03:00
faible pluie, orage
faible pluie, orage
 Vent variable
Vent: variable 6 km/h
Température: 13°C
Point de Rosée: 12°C
Humidité: 94%
Barometre: 1009 hPa
Nuage: orage
Visibilité: 10 km
2024/05/21 01:00 LFSX 210100Z AUTO VRB03KT 9999 -RA SCT018/// OVC074/// ///TCU 13/12 Q1009
 
LFLY - LYON Bron (Rhône)
Mise à jour: 21/05/2024 03:00
clair
clair
 Vent SSW
Vent: SSW 11 km/h
Température: 12°C
Point de Rosée: 11°C
Humidité: 94%
Barometre: 1009 hPa
Visibilité: supérieure à 10 km
2024/05/21 01:00 LFLY 210100Z AUTO 20006KT CAVOK 12/11 Q1009 TEMPO 0500 BCFG
LFLL - LYON Saint-Exupery (Rhône)
Mise à jour: 21/05/2024 03:00
clair
clair
 Vent SW
Vent: SW 11 km/h
Température: 13°C
Point de Rosée: 11°C
Humidité: 88%
Barometre: 1009 hPa
Visibilité: supérieure à 10 km
2024/05/21 01:00 LFLL 210100Z 22006KT CAVOK 13/11 Q1009 NOSIG
 
LFML - MARSEILLE PROVENCE (Bouches-du-Rhône)
Mise à jour: 21/05/2024 03:00
nuageux
nuageux
 Vent SSE
Vent: SSE 7 km/h
Température: 14°C
Point de Rosée: 12°C
Humidité: 88%
Barometre: 1009 hPa
Nuage: nuageux
Visibilité: 10 km
2024/05/21 01:00 LFML 210100Z AUTO 15004KT 9999 BKN026 BKN130 14/12 Q1009 NOSIG
LFJL - METZ-NANCY LORRAINE (Moselle)
Mise à jour: 21/05/2024 03:00
faible pluie, orage
faible pluie, orage
 Vent S
Vent: S 17 km/h
Température: 14°C
Point de Rosée: 13°C
Humidité: 94%
Barometre: 1009 hPa
Nuage: orage
Visibilité: 10 km
2024/05/21 01:00 LFJL 210100Z AUTO 18009KT 9999 -RA ///CB 14/13 Q1009 TEMPO 3000 SHRA
 
LFBM - MONT DE MARSAN (Landes)
Mise à jour: 21/05/2024 03:00
faible pluie, nuageux
faible pluie, nuageux
 Vent WSW
Vent: WSW 13 km/h
Température: 13°C
Point de Rosée: 12°C
Humidité: 94%
Barometre: 1012 hPa
Nuage: nuageux
Visibilité: 10 km
2024/05/21 01:00 LFBM 210100Z AUTO 24007KT 210V270 9999 -RA SCT017 BKN026 BKN054 13/12 Q1012 TEMPO BKN008 BKN020
LFMT - MONTPELLIER (Hérault)
Mise à jour: 21/05/2024 03:00
clair
clair
 Vent W
Vent: W 17 km/h
Température: 15°C
Point de Rosée: 9°C
Humidité: 68%
Barometre: 1010 hPa
Visibilité: supérieure à 10 km
2024/05/21 01:00 LFMT 210100Z AUTO 28009KT CAVOK 15/09 Q1010 NOSIG
 
LFRS - NANTES (Loire-Atlantique)
Mise à jour: 21/05/2024 03:00
nuageux
nuageux
 Vent variable
Vent: variable 6 km/h
Température: 13°C
Point de Rosée: 13°C
Humidité: 100%
Barometre: 1007 hPa
Nuage: nuageux
Visibilité: 9 km
2024/05/21 01:00 LFRS 210100Z AUTO VRB03KT 9000 FEW007 SCT039 BKN080 13/13 Q1007 TEMPO 4000 -SHRA BKN006 SCT040CB
LFMN - NICE Alpes-Maritimes)
Mise à jour: 21/05/2024 03:00
nuageux
nuageux
 Vent NW
Vent: NW 9 km/h
Température: 16°C
Point de Rosée: 15°C
Humidité: 94%
Barometre: 1007 hPa
Nuage: nuageux
Visibilité: 10 km
2024/05/21 01:00 LFMN 210100Z 31005KT 9999 FEW070 SCT086 BKN200 16/15 Q1007 NOSIG
 
LFMO - ORANGE (Vaucluse)
Mise à jour: 21/05/2024 03:00
nuages épars
nuages épars
 Vent WNW
Vent: WNW 6 km/h
Température: 13°C
Point de Rosée: 12°C
Humidité: 94%
Barometre: 1009 hPa
Nuage: nuages épars
Visibilité: 10 km
2024/05/21 01:00 LFMO 210100Z AUTO 29003KT 9999 FEW070 13/12 Q1009 NOSIG
LFPG - PARIS CH. DE-GAULLE (Val d-Oise)
Mise à jour: 21/05/2024 03:00
faible pluie, nuageux
faible pluie, nuageux
 Vent N
Vent: N 7 km/h
Température: 14°C
Point de Rosée: 13°C
Humidité: 94%
Barometre: 1008 hPa
Nuage: nuageux
Visibilité: 7 km
2024/05/21 01:00 LFPG 210100Z 01004KT 7000 -RA FEW040TCU SCT050 BKN070 14/13 Q1008 BECMG NSC
 
LFPB - PARIS LE BOURGET (Seine-Saint-Denis)
Mise à jour: 21/05/2024 03:00
orage
orage
 Vent N
Vent: N 7 km/h
Température: 15°C
Point de Rosée: 14°C
Humidité: 94%
Barometre: 1008 hPa
Nuage: orage
Visibilité: 8 km
2024/05/21 01:00 LFPB 210100Z AUTO 35004KT 8000 FEW028/// BKN072/// OVC096/// ///TCU 15/14 Q1008 TEMPO 4000 SHRA SCT035
LFPO - PARIS ORLY (Val-de-Marne)
Mise à jour: 21/05/2024 03:00
orage
orage
 Vent calm
Vent: Calme
Température: 15°C
Point de Rosée: 14°C
Humidité: 94%
Barometre: 1008 hPa
Nuage: orage
Visibilité: 6 km
2024/05/21 01:00 LFPO 210100Z AUTO 00000KT 6000 BKN010/// BKN036/// BKN050/// ///TCU 15/14 Q1008 TEMPO 04010KT -TSRA SCT025CB
 
LFBP - PAU (Pyrénées-Atlantiques)
Mise à jour: 21/05/2024 03:00
nuageux
nuageux
 Vent SSW
Vent: SSW 9 km/h
Température: 10°C
Température au Vent: 9°C
Point de Rosée: 9°C
Humidité: 94%
Barometre: 1013 hPa
Nuage: nuageux
Visibilité: 10 km
2024/05/21 01:00 LFBP 210100Z AUTO 21005KT 9999 BKN045/// 10/09 Q1013 NOSIG
LFMP - PERPIGNAN (Pyrénées-Orientales)
Mise à jour: 21/05/2024 03:00
couvert
couvert
 Vent WNW
Vent: WNW 11 km/h
Température: 15°C
Point de Rosée: 9°C
Humidité: 68%
Barometre: 1011 hPa
Nuage: couvert
Visibilité: 10 km
2024/05/21 01:00 LFMP 210100Z AUTO 29006KT 250V320 9999 OVC070 15/09 Q1011
 
TFFR - Point à Pitre (Guadeloupe)
Mise à jour: 21/05/2024 03:00
nuages épars
nuages épars
 Vent E
Vent: E 7 km/h
Température: 27°C
Humidex: 30°C
Point de Rosée: 23°C
Humidité: 79%
Barometre: 1014 hPa
Nuage: nuages épars
Visibilité: 10 km
2024/05/21 01:00 TFFR 210100Z AUTO 10004KT 9999 FEW026 27/23 Q1014 NOSIG
LFBI - POITIERS (Vienne)
Mise à jour: 21/05/2024 03:00
couvert
couvert
 Vent SSW
Vent: SSW 6 km/h
Température: 12°C
Point de Rosée: 12°C
Humidité: 100%
Barometre: 1007 hPa
Nuage: couvert
Visibilité: 10 km
2024/05/21 01:00 LFBI 210100Z AUTO 20003KT 9999 OVC004/// 12/12 Q1007 TEMPO 4500 BR
 
LFRQ - QUIMPER (Finistère)
Mise à jour: 21/05/2024 03:00
clair
clair
 Vent N
Vent: N 11 km/h
Température: 12°C
Point de Rosée: 10°C
Humidité: 88%
Barometre: 1010 hPa
Visibilité: supérieure à 10 km
2024/05/21 01:00 LFRQ 210100Z AUTO 36006KT CAVOK 12/10 Q1010
LFRN - RENNES (Ille-et-Vilaine)
Mise à jour: 21/05/2024 03:00
clair
clair
 Vent NNW
Vent: NNW 7 km/h
Température: 13°C
Point de Rosée: 13°C
Humidité: 100%
Barometre: 1008 hPa
Visibilité: supérieure à 10 km
2024/05/21 01:00 LFRN 210100Z AUTO 34004KT CAVOK 13/13 Q1008 TEMPO BKN005
 
LFCR - RODEZ (Aveyron)
Mise à jour: 21/05/2024 03:00
nuageux
nuageux
 Vent SW
Vent: SW 6 km/h
Température: 8°C
Point de Rosée: 7°C
Humidité: 93%
Barometre: 1012 hPa
Nuage: nuageux
Visibilité: 10 km
2024/05/21 01:00 LFCR 210100Z AUTO 22003KT 9999 SCT012 BKN031 08/07 Q1012 TEMPO BKN012
LFOP - ROUEN (Seine-Maritime)
Mise à jour: 21/05/2024 03:00
faible pluie, orage
faible pluie, orage
 Vent E
Vent: E 7 km/h
Température: 12°C
Point de Rosée: 12°C
Humidité: 100%
Barometre: 1008 hPa
Nuage: orage
Visibilité: 8 km
2024/05/21 01:00 LFOP 210100Z AUTO 09004KT 040V130 8000 -RA FEW016/// OVC024/// ///CB 12/12 Q1008
 
LFRT - SAINT-BRIEUC (Côtes d-Armor)
Mise à jour: 21/05/2024 03:00
nuageux
nuageux
 Vent variable
Vent: variable 4 km/h
Température: 11°C
Point de Rosée: 10°C
Humidité: 94%
Barometre: 1009 hPa
Nuage: nuageux
Visibilité: 6 km
2024/05/21 01:00 LFRT 210100Z AUTO VRB02KT 6000 BKN015 BKN024 11/10 Q1009
FMEE - Saint-Denis (Réunion)
Mise à jour: 21/05/2024 03:00
en partie nuageux
en partie nuageux
 Vent ESE
Vent: ESE 17 km/h
Température: 23°C
Point de Rosée: 18°C
Humidité: 74%
Barometre: 1018 hPa
Nuage: en partie nuageux
Visibilité: 10 km
2024/05/21 01:00 FMEE 210100Z AUTO 12009KT 9999 SCT084 23/18 Q1018 BECMG 14022G37KT
 
LFMH - SAINT-ETIENNE (Loire)
Mise à jour: 21/05/2024 03:00
clair
clair
 Vent SSW
Vent: SSW 15 km/h
Température: 12°C
Point de Rosée: 8°C
Humidité: 77%
Barometre: 1010 hPa
Visibilité: supérieure à 10 km
2024/05/21 01:00 LFMH 210100Z AUTO 20008KT CAVOK 12/08 Q1010
LFRZ - SAINT-NAZAIRE (Loire-Atlantique)
Mise à jour: 21/05/2024 03:00
clair
clair
 Vent N
Vent: N 11 km/h
Température: 14°C
Point de Rosée: 13°C
Humidité: 94%
Barometre: 1008 hPa
Visibilité: supérieure à 10 km
2024/05/21 01:00 LFRZ 210100Z AUTO 36006KT 340V040 CAVOK 14/13 Q1008 TEMPO 4000 -SHRA BKN009 SCT040CB
 
LFVP - SAINT-PIERRE (St Pierre et Miquelon)
Mise à jour: 21/05/2024 03:00
nuageux
nuageux
 Vent W
Vent: W 6 km/h
Température: 4°C
Point de Rosée: 3°C
Humidité: 93%
Barometre: 1016 hPa
Nuage: nuageux
Visibilité: 10 km
2024/05/21 01:00 LFVP 210100Z AUTO 26003KT 9999 BKN011 04/03 Q1016
LFLN - SAINT-YAN (Saône-et-Loire)
Mise à jour: 21/05/2024 03:00
clair
clair
 Vent variable
Vent: variable 2 km/h
Température: 12°C
Point de Rosée: 10°C
Humidité: 88%
Barometre: 1009 hPa
Visibilité: supérieure à 10 km
2024/05/21 01:00 LFLN 210100Z AUTO VRB01KT CAVOK 12/10 Q1009
 
LFMY - SALON (Bouches-du-Rhône)
Mise à jour: 21/05/2024 03:00
clair
clair
 Vent SW
Vent: SW 2 km/h
Température: 12°C
Point de Rosée: 11°C
Humidité: 94%
Barometre: 1009 hPa
Visibilité: supérieure à 10 km
2024/05/21 01:00 LFMY 210100Z AUTO 23001KT CAVOK 12/11 Q1009
SOCA - MATURY (Guyane)
Mise à jour: 21/05/2024 03:00
orage
orage
 Vent SE
Vent: SE 7 km/h
Température: 26°C
Point de Rosée: 26°C
Humidité: 100%
Barometre: 1013 hPa
Nuage: orage
Visibilité: 10 km
2024/05/21 01:00 SOCA 210100Z AUTO 14004KT 080V170 9999 FEW020/// BKN049/// BKN080/// ///TCU 26/26 Q1013 BECMG SCT015
 
LFKS - SOLENZARA (Corse-du-Sud)
Mise à jour: 21/05/2024 03:00
orage
orage
 Vent variable
Vent: variable 4 km/h
Température: 17°C
Point de Rosée: 16°C
Humidité: 94%
Barometre: 1007 hPa
Nuage: orage
Visibilité: 10 km
2024/05/21 01:00 LFKS 210100Z AUTO VRB02KT 9999 BKN018/// BKN023/// BKN036/// ///CB 17/16 Q1007
LFST - STRASBOURG (Bas-Rhin)
Mise à jour: 21/05/2024 03:00
orage à proximité, orage
orage à proximité, orage
 Vent W
Vent: W 13 km/h
Température: 17°C
Point de Rosée: 13°C
Humidité: 77%
Barometre: 1008 hPa
Nuage: orage
Visibilité: 10 km
2024/05/21 01:00 LFST 210100Z AUTO 26007KT 9999 VCTS FEW041/// BKN058/// OVC070/// ///CB 17/13 Q1008 TEMPO NSW BKN005 FEW050TCU
 
LFBT - TARBES - LOURDES (Hautes-Pyrénées)
Mise à jour: 21/05/2024 03:00
clair
clair
 Vent S
Vent: S 11 km/h
Température: 8°C
Température au Vent: 6°C
Point de Rosée: 7°C
Humidité: 93%
Barometre: 1013 hPa
Visibilité: supérieure à 10 km
2024/05/21 01:00 LFBT 210100Z AUTO 19006KT CAVOK 08/07 Q1013 NOSIG
LFBO - TOULOUSE BLAGNAC (Haute-Garonne)
Mise à jour: 21/05/2024 03:00
clair
clair
 Vent SSW
Vent: SSW 7 km/h
Température: 11°C
Point de Rosée: 9°C
Humidité: 88%
Barometre: 1012 hPa
Visibilité: supérieure à 10 km
2024/05/21 01:00 LFBO 210100Z AUTO 21004KT CAVOK 11/09 Q1012 TEMPO BKN013
 
LFOT - TOURS (Indre-et-Loire)
Mise à jour: 21/05/2024 03:00
couvert
couvert
 Vent SSE
Vent: SSE 6 km/h
Température: 13°C
Point de Rosée: 12°C
Humidité: 94%
Nuage: couvert
Visibilité: 10 km
2024/05/21 01:00 LFOT 210100Z AUTO 15003KT 9999 BKN023 BKN070 OVC080 13/12 Q//// BECMG BKN007
LFPN - TOUSSUS-LE-NOBLE (Yvelines)
Mise à jour: 21/05/2024 03:00
brume, orage
brume, orage
 Vent calm
Vent: Calme
Température: 14°C
Point de Rosée: 13°C
Humidité: 94%
Barometre: 1008 hPa
Nuage: orage
Visibilité: 5 km
2024/05/21 01:00 LFPN 210100Z AUTO 00000KT 4900 BR BKN009/// BKN058/// ///TCU 14/13 Q1008
 
LFQB - TROYES (Aube)
Mise à jour: 21/05/2024 03:00

 Vent S
Vent: S 9 km/h
Visibilité: 3 km
2024/05/21 01:00 LFQB 210100Z AUTO 19005KT 2500 0800 BCFG OVC002 12/12 Q1008
LFSI - SAINT-DIZIER (Haute-Marne)
Mise à jour: 21/05/2024 03:00
orage
orage
 Vent calm
Vent: Calme
Température: 14°C
Point de Rosée: 13°C
Humidité: 94%
Barometre: 1008 hPa
Nuage: orage
Visibilité: 10 km
2024/05/21 01:00 LFSI 210100Z AUTO 00000KT 9999 ///TCU 14/13 Q1008

Metar display script from Saratoga-Weather.org